sensor_id;sensor_type;location;lat;lon;timestamp;P1;durP1;ratioP1;P2;durP2;ratioP2
65418;SDS011;52027;50.658;14.004;2022-08-11T00:01:04;3.10;;;2.20;;
65418;SDS011;52027;50.658;14.004;2022-08-11T00:03:32;3.92;;;2.40;;
65418;SDS011;52027;50.658;14.004;2022-08-11T00:05:58;3.28;;;2.30;;
65418;SDS011;52027;50.658;14.004;2022-08-11T00:08:26;3.92;;;2.33;;
65418;SDS011;52027;50.658;14.004;2022-08-11T00:10:54;3.28;;;2.17;;
65418;SDS011;52027;50.658;14.004;2022-08-11T00:13:39;4.30;;;2.70;;
65418;SDS011;52027;50.658;14.004;2022-08-11T00:16:13;3.05;;;2.10;;
65418;SDS011;52027;50.658;14.004;2022-08-11T00:18:44;3.55;;;2.35;;
65418;SDS011;52027;50.658;14.004;2022-08-11T00:21:12;4.65;;;2.40;;
65418;SDS011;52027;50.658;14.004;2022-08-11T00:23:45;3.80;;;2.20;;
65418;SDS011;52027;50.658;14.004;2022-08-11T00:26:20;3.50;;;2.40;;
65418;SDS011;52027;50.658;14.004;2022-08-11T00:28:46;4.50;;;2.30;;
65418;SDS011;52027;50.658;14.004;2022-08-11T00:31:30;3.92;;;2.28;;
65418;SDS011;52027;50.658;14.004;2022-08-11T00:33:58;4.65;;;2.58;;
65418;SDS011;52027;50.658;14.004;2022-08-11T00:36:26;3.88;;;2.20;;
65418;SDS011;52027;50.658;14.004;2022-08-11T00:39:11;3.72;;;2.40;;
65418;SDS011;52027;50.658;14.004;2022-08-11T00:41:39;3.53;;;2.15;;
65418;SDS011;52027;50.658;14.004;2022-08-11T00:47:04;3.95;;;2.28;;
65418;SDS011;52027;50.658;14.004;2022-08-11T01:27:26;4.28;;;2.20;;
65418;SDS011;52027;50.658;14.004;2022-08-11T01:47:05;3.65;;;2.20;;
65418;SDS011;52027;50.658;14.004;2022-08-11T01:50:07;2.95;;;2.00;;
65418;SDS011;52027;50.658;14.004;2022-08-11T01:53:02;3.00;;;2.10;;
65418;SDS011;52027;50.658;14.004;2022-08-11T01:55:36;3.70;;;2.15;;
65418;SDS011;52027;50.658;14.004;2022-08-11T02:16:51;3.17;;;2.10;;
65418;SDS011;52027;50.658;14.004;2022-08-11T02:31:01;4.13;;;2.13;;
65418;SDS011;52027;50.658;14.004;2022-08-11T02:33:51;3.22;;;2.00;;
65418;SDS011;52027;50.658;14.004;2022-08-11T02:36:41;3.10;;;2.08;;
65418;SDS011;52027;50.658;14.004;2022-08-11T02:39:14;3.17;;;2.15;;
65418;SDS011;52027;50.658;14.004;2022-08-11T02:41:49;3.63;;;2.03;;
65418;SDS011;52027;50.658;14.004;2022-08-11T02:50:00;3.03;;;1.90;;
65418;SDS011;52027;50.658;14.004;2022-08-11T02:58:15;3.50;;;2.08;;
65418;SDS011;52027;50.658;14.004;2022-08-11T03:01:05;3.65;;;2.10;;
65418;SDS011;52027;50.658;14.004;2022-08-11T03:12:10;2.90;;;2.00;;
65418;SDS011;52027;50.658;14.004;2022-08-11T03:20:30;3.10;;;2.05;;
65418;SDS011;52027;50.658;14.004;2022-08-11T03:28:33;3.20;;;2.17;;
65418;SDS011;52027;50.658;14.004;2022-08-11T03:31:08;3.38;;;2.25;;
65418;SDS011;52027;50.658;14.004;2022-08-11T03:33:40;3.35;;;2.15;;
65418;SDS011;52027;50.658;14.004;2022-08-11T03:36:39;4.45;;;2.17;;
65418;SDS011;52027;50.658;14.004;2022-08-11T03:42:05;3.13;;;2.10;;
65418;SDS011;52027;50.658;14.004;2022-08-11T03:44:47;4.45;;;2.15;;
65418;SDS011;52027;50.658;14.004;2022-08-11T03:47:31;4.22;;;2.20;;
65418;SDS011;52027;50.658;14.004;2022-08-11T04:46:27;7.25;;;3.17;;
65418;SDS011;52027;50.658;14.004;2022-08-11T04:55:55;6.30;;;3.60;;
65418;SDS011;52027;50.658;14.004;2022-08-11T04:59:00;7.90;;;3.70;;
65418;SDS011;52027;50.658;14.004;2022-08-11T05:13:29;11.45;;;4.03;;
65418;SDS011;52027;50.658;14.004;2022-08-11T05:16:17;11.32;;;3.70;;
65418;SDS011;52027;50.658;14.004;2022-08-11T05:19:06;10.35;;;3.88;;
65418;SDS011;52027;50.658;14.004;2022-08-11T05:21:59;9.13;;;3.60;;
65418;SDS011;52027;50.658;14.004;2022-08-11T05:24:45;8.88;;;3.50;;
65418;SDS011;52027;50.658;14.004;2022-08-11T05:27:44;8.25;;;3.30;;
65418;SDS011;52027;50.658;14.004;2022-08-11T05:30:32;7.35;;;3.10;;
65418;SDS011;52027;50.658;14.004;2022-08-11T05:33:29;8.32;;;3.13;;
65418;SDS011;52027;50.658;14.004;2022-08-11T05:36:20;12.27;;;3.55;;
65418;SDS011;52027;50.658;14.004;2022-08-11T05:39:02;13.63;;;3.75;;
65418;SDS011;52027;50.658;14.004;2022-08-11T05:41:55;9.75;;;3.50;;
65418;SDS011;52027;50.658;14.004;2022-08-11T05:44:43;12.73;;;3.30;;
65418;SDS011;52027;50.658;14.004;2022-08-11T05:47:29;6.40;;;3.17;;
65418;SDS011;52027;50.658;14.004;2022-08-11T05:50:15;7.43;;;3.75;;
65418;SDS011;52027;50.658;14.004;2022-08-11T05:53:01;8.27;;;3.67;;
65418;SDS011;52027;50.658;14.004;2022-08-11T05:55:46;9.20;;;3.88;;
65418;SDS011;52027;50.658;14.004;2022-08-11T05:58:43;14.20;;;5.38;;
65418;SDS011;52027;50.658;14.004;2022-08-11T06:01:32;13.30;;;5.25;;
65418;SDS011;52027;50.658;14.004;2022-08-11T06:03:59;21.45;;;6.80;;
65418;SDS011;52027;50.658;14.004;2022-08-11T06:09:11;19.80;;;8.57;;
65418;SDS011;52027;50.658;14.004;2022-08-11T06:11:38;15.07;;;5.80;;
65418;SDS011;52027;50.658;14.004;2022-08-11T06:14:07;10.63;;;4.53;;
65418;SDS011;52027;50.658;14.004;2022-08-11T06:16:34;10.73;;;4.32;;
65418;SDS011;52027;50.658;14.004;2022-08-11T06:19:01;8.48;;;3.70;;
65418;SDS011;52027;50.658;14.004;2022-08-11T06:21:28;8.60;;;3.33;;
65418;SDS011;52027;50.658;14.004;2022-08-11T06:23:58;8.15;;;3.83;;
65418;SDS011;52027;50.658;14.004;2022-08-11T06:26:24;7.72;;;3.50;;
65418;SDS011;52027;50.658;14.004;2022-08-11T06:28:50;8.70;;;3.33;;
65418;SDS011;52027;50.658;14.004;2022-08-11T06:31:17;14.25;;;3.53;;
65418;SDS011;52027;50.658;14.004;2022-08-11T06:39:50;11.77;;;3.10;;
65418;SDS011;52027;50.658;14.004;2022-08-11T06:47:53;8.05;;;3.22;;
65418;SDS011;52027;50.658;14.004;2022-08-11T06:50:21;13.68;;;3.40;;
65418;SDS011;52027;50.658;14.004;2022-08-11T06:53:06;6.85;;;2.90;;
65418;SDS011;52027;50.658;14.004;2022-08-11T06:55:38;11.10;;;3.40;;
65418;SDS011;52027;50.658;14.004;2022-08-11T06:58:25;11.05;;;3.15;;
65418;SDS011;52027;50.658;14.004;2022-08-11T07:01:15;8.95;;;2.88;;
65418;SDS011;52027;50.658;14.004;2022-08-11T07:03:46;11.20;;;2.88;;
65418;SDS011;52027;50.658;14.004;2022-08-11T07:06:24;11.27;;;3.30;;
65418;SDS011;52027;50.658;14.004;2022-08-11T07:12:21;16.35;;;3.38;;
65418;SDS011;52027;50.658;14.004;2022-08-11T07:15:20;13.20;;;3.30;;
65418;SDS011;52027;50.658;14.004;2022-08-11T07:18:17;11.02;;;3.00;;
65418;SDS011;52027;50.658;14.004;2022-08-11T07:21:09;13.38;;;3.30;;
65418;SDS011;52027;50.658;14.004;2022-08-11T07:23:57;10.43;;;3.10;;
65418;SDS011;52027;50.658;14.004;2022-08-11T07:26:44;11.10;;;3.08;;
65418;SDS011;52027;50.658;14.004;2022-08-11T07:29:36;7.50;;;2.70;;
65418;SDS011;52027;50.658;14.004;2022-08-11T07:32:09;11.32;;;2.88;;
65418;SDS011;52027;50.658;14.004;2022-08-11T07:34:49;7.43;;;2.63;;
65418;SDS011;52027;50.658;14.004;2022-08-11T07:37:20;5.47;;;2.50;;
65418;SDS011;52027;50.658;14.004;2022-08-11T07:39:48;9.90;;;2.80;;
65418;SDS011;52027;50.658;14.004;2022-08-11T07:42:15;5.88;;;2.50;;
65418;SDS011;52027;50.658;14.004;2022-08-11T07:44:45;9.35;;;2.55;;
65418;SDS011;52027;50.658;14.004;2022-08-11T07:47:30;4.47;;;2.47;;
65418;SDS011;52027;50.658;14.004;2022-08-11T07:50:17;7.18;;;2.50;;
65418;SDS011;52027;50.658;14.004;2022-08-11T07:53:02;9.85;;;2.55;;
65418;SDS011;52027;50.658;14.004;2022-08-11T07:55:28;7.00;;;2.42;;
65418;SDS011;52027;50.658;14.004;2022-08-11T07:57:58;4.25;;;2.20;;
65418;SDS011;52027;50.658;14.004;2022-08-11T08:00:44;7.60;;;2.13;;
65418;SDS011;52027;50.658;14.004;2022-08-11T08:03:29;6.28;;;2.22;;
65418;SDS011;52027;50.658;14.004;2022-08-11T08:06:14;3.58;;;1.92;;
65418;SDS011;52027;50.658;14.004;2022-08-11T08:11:44;7.10;;;2.38;;
65418;SDS011;52027;50.658;14.004;2022-08-11T08:14:29;9.53;;;2.40;;
65418;SDS011;52027;50.658;14.004;2022-08-11T08:17:13;7.90;;;2.35;;
65418;SDS011;52027;50.658;14.004;2022-08-11T08:19:57;18.63;;;2.70;;
65418;SDS011;52027;50.658;14.004;2022-08-11T08:22:23;12.30;;;2.30;;
65418;SDS011;52027;50.658;14.004;2022-08-11T08:24:49;5.53;;;2.10;;
65418;SDS011;52027;50.658;14.004;2022-08-11T08:27:15;8.95;;;2.25;;
65418;SDS011;52027;50.658;14.004;2022-08-11T08:29:42;5.47;;;1.90;;
65418;SDS011;52027;50.658;14.004;2022-08-11T08:32:27;5.80;;;2.00;;
65418;SDS011;52027;50.658;14.004;2022-08-11T08:34:53;7.82;;;1.90;;
65418;SDS011;52027;50.658;14.004;2022-08-11T08:37:21;3.72;;;1.90;;
65418;SDS011;52027;50.658;14.004;2022-08-11T08:39:48;7.55;;;2.17;;
65418;SDS011;52027;50.658;14.004;2022-08-11T08:42:34;8.57;;;2.30;;
65418;SDS011;52027;50.658;14.004;2022-08-11T08:45:11;11.25;;;2.20;;
65418;SDS011;52027;50.658;14.004;2022-08-11T08:47:40;10.85;;;2.50;;
65418;SDS011;52027;50.658;14.004;2022-08-11T08:50:08;10.93;;;2.38;;
65418;SDS011;52027;50.658;14.004;2022-08-11T08:52:36;8.57;;;2.00;;
65418;SDS011;52027;50.658;14.004;2022-08-11T08:55:05;8.73;;;2.47;;
65418;SDS011;52027;50.658;14.004;2022-08-11T08:57:34;6.43;;;2.17;;
65418;SDS011;52027;50.658;14.004;2022-08-11T09:00:01;7.32;;;2.05;;
65418;SDS011;52027;50.658;14.004;2022-08-11T09:02:29;5.88;;;2.10;;
65418;SDS011;52027;50.658;14.004;2022-08-11T09:04:54;10.30;;;2.10;;
65418;SDS011;52027;50.658;14.004;2022-08-11T09:07:22;8.07;;;2.13;;
65418;SDS011;52027;50.658;14.004;2022-08-11T09:09:51;5.35;;;2.00;;
65418;SDS011;52027;50.658;14.004;2022-08-11T09:12:19;9.05;;;2.30;;
65418;SDS011;52027;50.658;14.004;2022-08-11T09:14:46;4.78;;;1.90;;
65418;SDS011;52027;50.658;14.004;2022-08-11T09:20:06;4.07;;;2.00;;
65418;SDS011;52027;50.658;14.004;2022-08-11T09:22:38;7.53;;;2.17;;
65418;SDS011;52027;50.658;14.004;2022-08-11T09:25:26;5.57;;;2.00;;
65418;SDS011;52027;50.658;14.004;2022-08-11T09:28:13;5.57;;;2.00;;
65418;SDS011;52027;50.658;14.004;2022-08-11T09:30:43;5.97;;;2.00;;
65418;SDS011;52027;50.658;14.004;2022-08-11T09:33:11;4.75;;;1.98;;
65418;SDS011;52027;50.658;14.004;2022-08-11T09:35:39;7.80;;;2.10;;
65418;SDS011;52027;50.658;14.004;2022-08-11T09:38:10;7.03;;;2.03;;
65418;SDS011;52027;50.658;14.004;2022-08-11T09:40:58;8.25;;;2.20;;
65418;SDS011;52027;50.658;14.004;2022-08-11T09:43:26;9.73;;;2.45;;
65418;SDS011;52027;50.658;14.004;2022-08-11T09:46:11;10.82;;;2.00;;
65418;SDS011;52027;50.658;14.004;2022-08-11T09:48:39;6.30;;;2.10;;
65418;SDS011;52027;50.658;14.004;2022-08-11T09:51:06;3.92;;;1.80;;
65418;SDS011;52027;50.658;14.004;2022-08-11T09:53:34;6.63;;;2.00;;
65418;SDS011;52027;50.658;14.004;2022-08-11T09:56:02;7.43;;;1.85;;
65418;SDS011;52027;50.658;14.004;2022-08-11T09:58:48;5.38;;;2.00;;
65418;SDS011;52027;50.658;14.004;2022-08-11T10:01:14;9.70;;;1.90;;
65418;SDS011;52027;50.658;14.004;2022-08-11T10:03:52;5.82;;;1.70;;
65418;SDS011;52027;50.658;14.004;2022-08-11T10:06:30;7.47;;;2.03;;
65418;SDS011;52027;50.658;14.004;2022-08-11T10:09:17;6.47;;;2.00;;
65418;SDS011;52027;50.658;14.004;2022-08-11T10:11:45;7.35;;;1.85;;
65418;SDS011;52027;50.658;14.004;2022-08-11T10:14:13;12.50;;;2.40;;
65418;SDS011;52027;50.658;14.004;2022-08-11T10:17:02;6.65;;;1.80;;
65418;SDS011;52027;50.658;14.004;2022-08-11T10:19:30;5.82;;;1.60;;
65418;SDS011;52027;50.658;14.004;2022-08-11T10:21:58;5.53;;;1.80;;
65418;SDS011;52027;50.658;14.004;2022-08-11T10:24:42;5.53;;;1.75;;
65418;SDS011;52027;50.658;14.004;2022-08-11T10:27:27;7.03;;;2.05;;
65418;SDS011;52027;50.658;14.004;2022-08-11T10:29:53;4.43;;;1.50;;
65418;SDS011;52027;50.658;14.004;2022-08-11T10:32:37;3.08;;;1.50;;
65418;SDS011;52027;50.658;14.004;2022-08-11T10:35:22;2.60;;;1.40;;
65418;SDS011;52027;50.658;14.004;2022-08-11T10:37:51;7.47;;;1.52;;
65418;SDS011;52027;50.658;14.004;2022-08-11T10:40:19;3.67;;;1.50;;
65418;SDS011;52027;50.658;14.004;2022-08-11T10:42:47;10.25;;;1.70;;
65418;SDS011;52027;50.658;14.004;2022-08-11T10:45:34;7.53;;;1.65;;
65418;SDS011;52027;50.658;14.004;2022-08-11T10:48:20;8.25;;;1.70;;
65418;SDS011;52027;50.658;14.004;2022-08-11T10:50:48;6.43;;;1.70;;
65418;SDS011;52027;50.658;14.004;2022-08-11T10:53:34;5.38;;;1.70;;
65418;SDS011;52027;50.658;14.004;2022-08-11T10:56:20;5.18;;;1.85;;
65418;SDS011;52027;50.658;14.004;2022-08-11T10:59:07;5.00;;;1.60;;
65418;SDS011;52027;50.658;14.004;2022-08-11T11:01:34;7.55;;;1.70;;
65418;SDS011;52027;50.658;14.004;2022-08-11T11:10:08;17.10;;;2.00;;
65418;SDS011;52027;50.658;14.004;2022-08-11T11:12:19;10.52;;;1.65;;
65418;SDS011;52027;50.658;14.004;2022-08-11T11:15:08;10.05;;;1.90;;
65418;SDS011;52027;50.658;14.004;2022-08-11T11:20:38;10.07;;;2.00;;
65418;SDS011;52027;50.658;14.004;2022-08-11T11:37:22;10.38;;;2.00;;
65418;SDS011;52027;50.658;14.004;2022-08-11T11:39:48;5.22;;;1.70;;
65418;SDS011;52027;50.658;14.004;2022-08-11T11:42:14;4.38;;;1.88;;
65418;SDS011;52027;50.658;14.004;2022-08-11T11:44:42;8.98;;;1.70;;
65418;SDS011;52027;50.658;14.004;2022-08-11T11:47:10;10.00;;;1.70;;
65418;SDS011;52027;50.658;14.004;2022-08-11T11:49:36;7.05;;;1.67;;
65418;SDS011;52027;50.658;14.004;2022-08-11T11:52:04;6.95;;;1.70;;
65418;SDS011;52027;50.658;14.004;2022-08-11T11:54:32;13.98;;;1.90;;
65418;SDS011;52027;50.658;14.004;2022-08-11T11:57:00;8.88;;;1.90;;
65418;SDS011;52027;50.658;14.004;2022-08-11T11:59:50;9.25;;;1.80;;
65418;SDS011;52027;50.658;14.004;2022-08-11T12:05:03;19.75;;;1.92;;
65418;SDS011;52027;50.658;14.004;2022-08-11T12:07:29;12.98;;;1.80;;
65418;SDS011;52027;50.658;14.004;2022-08-11T12:10:15;8.80;;;1.90;;
65418;SDS011;52027;50.658;14.004;2022-08-11T12:12:41;16.02;;;2.53;;
65418;SDS011;52027;50.658;14.004;2022-08-11T12:15:26;10.55;;;2.15;;
65418;SDS011;52027;50.658;14.004;2022-08-11T12:17:52;15.18;;;2.10;;
65418;SDS011;52027;50.658;14.004;2022-08-11T12:20:18;4.97;;;1.70;;
65418;SDS011;52027;50.658;14.004;2022-08-11T12:22:45;8.25;;;1.88;;
65418;SDS011;52027;50.658;14.004;2022-08-11T12:25:30;7.75;;;1.70;;
65418;SDS011;52027;50.658;14.004;2022-08-11T12:28:15;3.65;;;1.50;;
65418;SDS011;52027;50.658;14.004;2022-08-11T12:30:41;5.05;;;1.73;;
65418;SDS011;52027;50.658;14.004;2022-08-11T12:33:11;9.55;;;1.70;;
65418;SDS011;52027;50.658;14.004;2022-08-11T12:35:37;12.27;;;2.10;;
65418;SDS011;52027;50.658;14.004;2022-08-11T12:38:03;14.93;;;2.53;;
65418;SDS011;52027;50.658;14.004;2022-08-11T12:40:30;19.77;;;2.47;;
65418;SDS011;52027;50.658;14.004;2022-08-11T12:43:16;13.57;;;2.37;;
65418;SDS011;52027;50.658;14.004;2022-08-11T12:46:13;14.75;;;2.30;;
65418;SDS011;52027;50.658;14.004;2022-08-11T12:48:44;16.88;;;2.40;;
65418;SDS011;52027;50.658;14.004;2022-08-11T12:51:36;15.82;;;2.20;;
65418;SDS011;52027;50.658;14.004;2022-08-11T12:57:02;9.30;;;1.80;;
65418;SDS011;52027;50.658;14.004;2022-08-11T12:59:55;7.75;;;1.77;;
65418;SDS011;52027;50.658;14.004;2022-08-11T13:02:41;5.88;;;1.92;;
65418;SDS011;52027;50.658;14.004;2022-08-11T13:05:26;4.75;;;1.50;;
65418;SDS011;52027;50.658;14.004;2022-08-11T13:07:52;3.83;;;1.58;;
65418;SDS011;52027;50.658;14.004;2022-08-11T13:10:18;6.63;;;1.50;;
65418;SDS011;52027;50.658;14.004;2022-08-11T13:13:05;6.13;;;1.80;;
65418;SDS011;52027;50.658;14.004;2022-08-11T13:15:32;5.00;;;1.67;;
65418;SDS011;52027;50.658;14.004;2022-08-11T13:18:00;4.88;;;1.45;;
65418;SDS011;52027;50.658;14.004;2022-08-11T13:20:26;5.15;;;1.60;;
65418;SDS011;52027;50.658;14.004;2022-08-11T13:22:53;4.07;;;1.40;;
65418;SDS011;52027;50.658;14.004;2022-08-11T13:25:21;4.90;;;1.58;;
65418;SDS011;52027;50.658;14.004;2022-08-11T13:27:56;4.38;;;1.55;;
65418;SDS011;52027;50.658;14.004;2022-08-11T13:30:27;5.22;;;1.40;;
65418;SDS011;52027;50.658;14.004;2022-08-11T13:33:14;2.95;;;1.45;;
65418;SDS011;52027;50.658;14.004;2022-08-11T13:35:41;4.00;;;1.50;;
65418;SDS011;52027;50.658;14.004;2022-08-11T13:38:09;3.30;;;1.50;;
65418;SDS011;52027;50.658;14.004;2022-08-11T13:40:37;3.42;;;1.40;;
65418;SDS011;52027;50.658;14.004;2022-08-11T13:43:04;4.13;;;1.50;;
65418;SDS011;52027;50.658;14.004;2022-08-11T13:45:30;3.22;;;1.50;;
65418;SDS011;52027;50.658;14.004;2022-08-11T13:47:57;3.38;;;1.60;;
65418;SDS011;52027;50.658;14.004;2022-08-11T13:50:24;6.03;;;1.70;;
65418;SDS011;52027;50.658;14.004;2022-08-11T13:53:11;3.60;;;1.50;;
65418;SDS011;52027;50.658;14.004;2022-08-11T13:55:41;5.18;;;1.50;;
65418;SDS011;52027;50.658;14.004;2022-08-11T13:58:10;3.85;;;1.40;;
65418;SDS011;52027;50.658;14.004;2022-08-11T14:00:37;3.08;;;1.40;;
65418;SDS011;52027;50.658;14.004;2022-08-11T14:03:04;3.25;;;1.55;;
65418;SDS011;52027;50.658;14.004;2022-08-11T14:05:36;6.40;;;1.67;;
65418;SDS011;52027;50.658;14.004;2022-08-11T14:08:07;5.60;;;1.50;;
65418;SDS011;52027;50.658;14.004;2022-08-11T14:10:36;3.30;;;1.52;;
65418;SDS011;52027;50.658;14.004;2022-08-11T14:13:05;3.20;;;1.38;;
65418;SDS011;52027;50.658;14.004;2022-08-11T14:15:53;3.20;;;1.60;;
65418;SDS011;52027;50.658;14.004;2022-08-11T14:18:21;3.15;;;1.50;;
65418;SDS011;52027;50.658;14.004;2022-08-11T14:20:57;4.72;;;1.70;;
65418;SDS011;52027;50.658;14.004;2022-08-11T14:23:44;5.63;;;1.60;;
65418;SDS011;52027;50.658;14.004;2022-08-11T14:26:15;5.95;;;1.50;;
65418;SDS011;52027;50.658;14.004;2022-08-11T14:28:47;4.82;;;1.60;;
65418;SDS011;52027;50.658;14.004;2022-08-11T14:31:17;4.55;;;1.73;;
65418;SDS011;52027;50.658;14.004;2022-08-11T14:33:43;3.28;;;1.50;;
65418;SDS011;52027;50.658;14.004;2022-08-11T14:36:09;4.28;;;1.50;;
65418;SDS011;52027;50.658;14.004;2022-08-11T14:38:35;3.13;;;1.52;;
65418;SDS011;52027;50.658;14.004;2022-08-11T14:41:02;2.97;;;1.38;;
65418;SDS011;52027;50.658;14.004;2022-08-11T14:43:47;1.90;;;1.23;;
65418;SDS011;52027;50.658;14.004;2022-08-11T14:46:31;2.83;;;1.52;;
65418;SDS011;52027;50.658;14.004;2022-08-11T14:51:42;2.22;;;1.50;;
65418;SDS011;52027;50.658;14.004;2022-08-11T14:54:09;4.25;;;1.67;;
65418;SDS011;52027;50.658;14.004;2022-08-11T14:56:53;3.10;;;1.67;;
65418;SDS011;52027;50.658;14.004;2022-08-11T14:59:19;5.38;;;1.55;;
65418;SDS011;52027;50.658;14.004;2022-08-11T15:01:45;4.30;;;1.40;;
65418;SDS011;52027;50.658;14.004;2022-08-11T15:04:29;5.30;;;1.92;;
65418;SDS011;52027;50.658;14.004;2022-08-11T15:06:55;3.35;;;1.30;;
65418;SDS011;52027;50.658;14.004;2022-08-11T15:09:21;3.63;;;1.60;;
65418;SDS011;52027;50.658;14.004;2022-08-11T15:11:47;3.35;;;1.60;;
65418;SDS011;52027;50.658;14.004;2022-08-11T15:14:31;2.58;;;1.50;;
65418;SDS011;52027;50.658;14.004;2022-08-11T15:17:25;2.28;;;1.40;;
65418;SDS011;52027;50.658;14.004;2022-08-11T15:19:52;2.90;;;1.60;;
65418;SDS011;52027;50.658;14.004;2022-08-11T15:22:37;2.53;;;1.50;;
65418;SDS011;52027;50.658;14.004;2022-08-11T15:25:21;3.00;;;1.60;;
65418;SDS011;52027;50.658;14.004;2022-08-11T15:27:47;3.90;;;1.50;;
65418;SDS011;52027;50.658;14.004;2022-08-11T15:30:34;2.63;;;1.40;;
65418;SDS011;52027;50.658;14.004;2022-08-11T15:33:20;3.08;;;1.65;;
65418;SDS011;52027;50.658;14.004;2022-08-11T15:36:06;5.10;;;1.60;;
65418;SDS011;52027;50.658;14.004;2022-08-11T15:38:53;6.43;;;1.55;;
65418;SDS011;52027;50.658;14.004;2022-08-11T15:41:22;4.07;;;1.50;;
65418;SDS011;52027;50.658;14.004;2022-08-11T15:44:26;3.70;;;1.63;;
65418;SDS011;52027;50.658;14.004;2022-08-11T15:47:25;2.70;;;1.58;;
65418;SDS011;52027;50.658;14.004;2022-08-11T15:49:52;3.40;;;1.63;;
65418;SDS011;52027;50.658;14.004;2022-08-11T15:52:22;2.40;;;1.60;;
65418;SDS011;52027;50.658;14.004;2022-08-11T15:54:51;6.00;;;1.65;;
65418;SDS011;52027;50.658;14.004;2022-08-11T15:57:17;3.72;;;1.67;;
65418;SDS011;52027;50.658;14.004;2022-08-11T16:00:03;4.18;;;1.70;;
65418;SDS011;52027;50.658;14.004;2022-08-11T16:05:14;5.05;;;1.60;;
65418;SDS011;52027;50.658;14.004;2022-08-11T16:07:42;4.70;;;1.50;;
65418;SDS011;52027;50.658;14.004;2022-08-11T16:10:13;3.17;;;1.60;;
65418;SDS011;52027;50.658;14.004;2022-08-11T16:12:50;2.42;;;1.58;;
65418;SDS011;52027;50.658;14.004;2022-08-11T16:15:37;4.22;;;1.90;;
65418;SDS011;52027;50.658;14.004;2022-08-11T16:18:40;4.85;;;1.80;;
65418;SDS011;52027;50.658;14.004;2022-08-11T16:21:17;4.10;;;1.80;;
65418;SDS011;52027;50.658;14.004;2022-08-11T16:23:54;2.72;;;1.60;;
65418;SDS011;52027;50.658;14.004;2022-08-11T16:26:23;3.35;;;1.67;;
65418;SDS011;52027;50.658;14.004;2022-08-11T16:28:49;3.40;;;1.80;;
65418;SDS011;52027;50.658;14.004;2022-08-11T16:31:17;3.60;;;1.65;;
65418;SDS011;52027;50.658;14.004;2022-08-11T16:33:45;4.57;;;1.67;;
65418;SDS011;52027;50.658;14.004;2022-08-11T16:36:12;2.90;;;1.60;;
65418;SDS011;52027;50.658;14.004;2022-08-11T16:38:58;5.60;;;1.70;;
65418;SDS011;52027;50.658;14.004;2022-08-11T16:41:26;2.40;;;1.55;;
65418;SDS011;52027;50.658;14.004;2022-08-11T16:44:13;3.92;;;2.00;;
65418;SDS011;52027;50.658;14.004;2022-08-11T16:47:00;3.10;;;1.80;;
65418;SDS011;52027;50.658;14.004;2022-08-11T16:49:36;1.77;;;1.38;;
65418;SDS011;52027;50.658;14.004;2022-08-11T16:52:07;4.25;;;1.65;;
65418;SDS011;52027;50.658;14.004;2022-08-11T16:54:36;2.88;;;1.55;;
65418;SDS011;52027;50.658;14.004;2022-08-11T16:57:07;3.33;;;1.70;;
65418;SDS011;52027;50.658;14.004;2022-08-11T16:59:58;3.53;;;1.65;;
65418;SDS011;52027;50.658;14.004;2022-08-11T17:02:31;2.63;;;1.70;;
65418;SDS011;52027;50.658;14.004;2022-08-11T17:05:20;4.13;;;1.80;;
65418;SDS011;52027;50.658;14.004;2022-08-11T17:08:06;3.10;;;1.63;;
65418;SDS011;52027;50.658;14.004;2022-08-11T17:11:02;3.95;;;1.65;;
65418;SDS011;52027;50.658;14.004;2022-08-11T17:14:00;3.30;;;1.70;;
65418;SDS011;52027;50.658;14.004;2022-08-11T17:16:33;4.20;;;1.60;;
65418;SDS011;52027;50.658;14.004;2022-08-11T17:19:02;4.35;;;1.80;;
65418;SDS011;52027;50.658;14.004;2022-08-11T17:21:40;3.10;;;1.70;;
65418;SDS011;52027;50.658;14.004;2022-08-11T17:24:28;4.35;;;1.60;;
65418;SDS011;52027;50.658;14.004;2022-08-11T17:26:56;3.72;;;1.65;;
65418;SDS011;52027;50.658;14.004;2022-08-11T17:32:02;4.15;;;1.58;;
65418;SDS011;52027;50.658;14.004;2022-08-11T17:34:56;4.72;;;1.73;;
65418;SDS011;52027;50.658;14.004;2022-08-11T17:37:41;3.53;;;1.60;;
65418;SDS011;52027;50.658;14.004;2022-08-11T17:40:10;3.47;;;1.60;;
65418;SDS011;52027;50.658;14.004;2022-08-11T17:42:37;3.65;;;1.60;;
65418;SDS011;52027;50.658;14.004;2022-08-11T17:45:23;4.07;;;1.50;;
65418;SDS011;52027;50.658;14.004;2022-08-11T17:50:51;3.08;;;1.60;;
65418;SDS011;52027;50.658;14.004;2022-08-11T17:53:19;2.83;;;1.70;;
65418;SDS011;52027;50.658;14.004;2022-08-11T17:56:03;2.38;;;1.50;;
65418;SDS011;52027;50.658;14.004;2022-08-11T18:01:35;2.83;;;1.50;;
65418;SDS011;52027;50.658;14.004;2022-08-11T18:04:03;2.65;;;1.50;;
65418;SDS011;52027;50.658;14.004;2022-08-11T18:06:31;2.95;;;1.50;;
65418;SDS011;52027;50.658;14.004;2022-08-11T18:08:58;2.65;;;1.60;;
65418;SDS011;52027;50.658;14.004;2022-08-11T18:11:45;2.40;;;1.60;;
65418;SDS011;52027;50.658;14.004;2022-08-11T18:14:30;3.00;;;1.60;;
65418;SDS011;52027;50.658;14.004;2022-08-11T18:17:15;2.60;;;1.50;;
65418;SDS011;52027;50.658;14.004;2022-08-11T18:20:00;2.90;;;1.50;;
65418;SDS011;52027;50.658;14.004;2022-08-11T18:22:44;3.63;;;1.40;;
65418;SDS011;52027;50.658;14.004;2022-08-11T18:25:36;2.17;;;1.40;;
65418;SDS011;52027;50.658;14.004;2022-08-11T18:28:23;3.58;;;1.60;;
65418;SDS011;52027;50.658;14.004;2022-08-11T18:31:12;2.60;;;1.55;;
65418;SDS011;52027;50.658;14.004;2022-08-11T18:34:00;2.80;;;1.52;;
65418;SDS011;52027;50.658;14.004;2022-08-11T18:36:50;2.60;;;1.50;;
65418;SDS011;52027;50.658;14.004;2022-08-11T18:39:43;3.23;;;1.50;;
65418;SDS011;52027;50.658;14.004;2022-08-11T18:42:31;3.10;;;1.58;;
65418;SDS011;52027;50.658;14.004;2022-08-11T18:45:16;3.45;;;1.63;;
65418;SDS011;52027;50.658;14.004;2022-08-11T18:48:08;4.03;;;1.80;;
65418;SDS011;52027;50.658;14.004;2022-08-11T18:50:54;2.78;;;1.60;;
65418;SDS011;52027;50.658;14.004;2022-08-11T18:53:41;2.60;;;1.60;;
65418;SDS011;52027;50.658;14.004;2022-08-11T18:56:26;2.75;;;1.50;;
65418;SDS011;52027;50.658;14.004;2022-08-11T18:59:12;2.67;;;1.60;;
65418;SDS011;52027;50.658;14.004;2022-08-11T19:02:00;3.95;;;1.65;;
65418;SDS011;52027;50.658;14.004;2022-08-11T19:04:45;2.88;;;1.60;;
65418;SDS011;52027;50.658;14.004;2022-08-11T19:07:30;3.00;;;1.60;;
65418;SDS011;52027;50.658;14.004;2022-08-11T19:10:15;5.22;;;1.75;;
65418;SDS011;52027;50.658;14.004;2022-08-11T19:13:00;5.05;;;1.70;;
65418;SDS011;52027;50.658;14.004;2022-08-11T19:15:45;3.92;;;1.70;;
65418;SDS011;52027;50.658;14.004;2022-08-11T19:18:29;2.90;;;1.50;;
65418;SDS011;52027;50.658;14.004;2022-08-11T19:24:02;2.50;;;1.70;;
65418;SDS011;52027;50.658;14.004;2022-08-11T19:26:47;2.80;;;1.58;;
65418;SDS011;52027;50.658;14.004;2022-08-11T19:29:35;3.85;;;1.70;;
65418;SDS011;52027;50.658;14.004;2022-08-11T19:32:20;2.55;;;1.60;;
65418;SDS011;52027;50.658;14.004;2022-08-11T19:35:04;3.63;;;1.70;;
65418;SDS011;52027;50.658;14.004;2022-08-11T19:37:49;3.83;;;1.80;;
65418;SDS011;52027;50.658;14.004;2022-08-11T19:40:34;3.10;;;1.63;;
65418;SDS011;52027;50.658;14.004;2022-08-11T19:43:20;3.65;;;1.58;;
65418;SDS011;52027;50.658;14.004;2022-08-11T19:48:50;3.17;;;1.70;;
65418;SDS011;52027;50.658;14.004;2022-08-11T19:51:36;2.88;;;1.70;;
65418;SDS011;52027;50.658;14.004;2022-08-11T19:57:06;2.80;;;1.63;;
65418;SDS011;52027;50.658;14.004;2022-08-11T19:59:50;3.15;;;1.67;;
65418;SDS011;52027;50.658;14.004;2022-08-11T20:02:35;2.75;;;1.65;;